createdAt,value
2018-07-17T00:01:19.339Z,24.30
2018-07-17T00:03:46.872Z,24.30
2018-07-17T00:06:14.220Z,24.30
2018-07-17T00:08:41.592Z,24.30
2018-07-17T00:11:09.409Z,24.20
2018-07-17T00:13:36.771Z,24.20
2018-07-17T00:16:04.388Z,24.20
2018-07-17T00:18:31.851Z,24.20
2018-07-17T00:20:59.193Z,24.20
2018-07-17T00:23:26.536Z,24.10
2018-07-17T00:25:53.886Z,24.20
2018-07-17T00:28:21.235Z,24.20
2018-07-17T00:30:48.580Z,24.20
2018-07-17T00:33:15.918Z,24.10
2018-07-17T00:35:43.258Z,24.10
2018-07-17T00:38:10.616Z,24.10
2018-07-17T00:40:37.963Z,24.00
2018-07-17T00:43:06.598Z,24.00
2018-07-17T00:45:33.927Z,23.60
2018-07-17T00:48:01.283Z,23.90
2018-07-17T00:50:28.631Z,23.90
2018-07-17T00:52:56.024Z,23.90
2018-07-17T00:55:23.382Z,23.90
2018-07-17T00:57:50.883Z,23.90
2018-07-17T01:00:18.172Z,23.90
2018-07-17T01:02:51.137Z,23.90
2018-07-17T01:05:24.282Z,23.80
2018-07-17T01:07:57.517Z,23.80
2018-07-17T01:10:30.674Z,23.80
2018-07-17T01:12:57.550Z,23.80
2018-07-17T01:15:31.980Z,23.70
2018-07-17T01:17:59.349Z,23.70
2018-07-17T01:20:26.784Z,23.70
2018-07-17T01:22:54.171Z,23.70
2018-07-17T01:25:21.516Z,23.70
2018-07-17T01:27:48.854Z,23.70
2018-07-17T01:30:16.200Z,23.70
2018-07-17T01:32:43.568Z,23.70
2018-07-17T01:35:10.927Z,23.70
2018-07-17T01:37:38.311Z,23.70
2018-07-17T01:40:05.704Z,23.60
2018-07-17T01:42:33.031Z,23.60
2018-07-17T01:45:00.400Z,23.60
2018-07-17T01:49:55.091Z,23.60
2018-07-17T01:52:22.484Z,23.60
2018-07-17T01:54:49.854Z,23.60
2018-07-17T01:57:17.227Z,23.60
2018-07-17T01:59:44.569Z,23.60
2018-07-17T02:02:11.917Z,23.60
2018-07-17T02:04:39.287Z,23.60
2018-07-17T02:07:06.891Z,23.60
2018-07-17T02:09:34.237Z,23.50
2018-07-17T02:12:01.612Z,23.50
2018-07-17T02:14:28.982Z,23.50
2018-07-17T02:16:56.343Z,23.50
2018-07-17T02:19:23.720Z,23.50
2018-07-17T02:21:51.063Z,23.50
2018-07-17T02:24:18.399Z,23.40
2018-07-17T02:29:13.071Z,23.40
2018-07-17T02:31:40.441Z,23.40
2018-07-17T02:34:07.776Z,23.40
2018-07-17T02:36:35.299Z,23.40
2018-07-17T02:41:30.092Z,23.40
2018-07-17T02:46:24.821Z,23.30
2018-07-17T02:48:52.163Z,23.20
2018-07-17T02:51:19.504Z,23.20
2018-07-17T02:53:46.847Z,23.20
2018-07-17T02:56:14.190Z,23.20
2018-07-17T02:58:41.555Z,23.20
2018-07-17T03:01:08.903Z,23.10
2018-07-17T03:03:36.256Z,23.10
2018-07-17T03:06:03.616Z,23.10
2018-07-17T03:08:30.960Z,23.00
2018-07-17T03:10:58.291Z,23.00
2018-07-17T03:13:25.625Z,23.00
2018-07-17T03:15:53.007Z,23.10
2018-07-17T03:18:20.356Z,23.00
2018-07-17T03:20:47.691Z,23.00
2018-07-17T03:23:15.374Z,23.00
2018-07-17T03:25:42.711Z,23.00
2018-07-17T03:28:10.043Z,22.90
2018-07-17T03:30:37.460Z,22.90
2018-07-17T03:33:04.807Z,22.90
2018-07-17T03:35:32.176Z,22.90
2018-07-17T03:37:59.544Z,22.90
2018-07-17T03:40:26.880Z,22.80
2018-07-17T03:42:54.231Z,22.80
2018-07-17T03:45:21.569Z,22.80
2018-07-17T03:47:48.968Z,22.80
2018-07-17T03:52:43.659Z,22.80
2018-07-17T03:55:10.998Z,22.80
2018-07-17T03:57:38.351Z,22.70
2018-07-17T04:00:06.039Z,22.70
2018-07-17T04:02:33.419Z,22.70
2018-07-17T04:05:00.832Z,22.70
2018-07-17T04:07:28.171Z,22.70
2018-07-17T04:09:55.553Z,22.60
2018-07-17T04:12:22.903Z,22.60
2018-07-17T04:14:50.255Z,22.60
2018-07-17T04:17:17.622Z,22.60
2018-07-17T04:19:44.968Z,22.50
2018-07-17T04:22:12.315Z,22.50
2018-07-17T04:24:39.655Z,22.50
2018-07-17T04:27:07.011Z,22.50
2018-07-17T04:29:34.375Z,22.50
2018-07-17T04:32:01.720Z,22.40
2018-07-17T04:34:29.093Z,22.40
2018-07-17T04:36:56.460Z,22.40
2018-07-17T04:39:23.816Z,22.40
2018-07-17T04:41:51.182Z,22.30
2018-07-17T04:44:18.561Z,22.30
2018-07-17T04:46:45.897Z,22.30
2018-07-17T04:49:13.256Z,22.30
2018-07-17T04:51:40.642Z,22.30
2018-07-17T04:54:08.021Z,22.30
2018-07-17T04:56:35.454Z,22.30
2018-07-17T04:59:02.788Z,22.30
2018-07-17T05:03:57.506Z,22.30
2018-07-17T05:06:25.012Z,22.30
2018-07-17T05:08:52.415Z,22.30
2018-07-17T05:11:19.854Z,22.30
2018-07-17T05:13:47.212Z,22.30
2018-07-17T05:16:14.614Z,22.30
2018-07-17T05:18:41.936Z,22.40
2018-07-17T05:21:09.287Z,22.40
2018-07-17T05:23:36.665Z,22.40
2018-07-17T05:26:04.292Z,22.40
2018-07-17T05:28:31.631Z,22.40
2018-07-17T05:30:59.037Z,22.40
2018-07-17T05:33:26.379Z,22.20
2018-07-17T05:35:54.286Z,22.40
2018-07-17T05:38:21.695Z,22.40
2018-07-17T05:40:49.048Z,22.50
2018-07-17T05:43:16.406Z,22.50
2018-07-17T05:48:11.180Z,22.50
2018-07-17T05:50:38.525Z,22.50
2018-07-17T05:53:05.903Z,22.50
2018-07-17T05:55:33.247Z,22.50
2018-07-17T05:58:00.615Z,22.50
2018-07-17T06:00:27.978Z,22.50
2018-07-17T06:02:55.310Z,22.60
2018-07-17T06:05:22.692Z,22.60
2018-07-17T06:07:50.020Z,22.60
2018-07-17T06:10:17.407Z,22.60
2018-07-17T06:12:44.741Z,22.60
2018-07-17T06:15:12.132Z,22.60
2018-07-17T06:17:39.483Z,22.70
2018-07-17T06:20:06.854Z,22.70
2018-07-17T06:22:34.335Z,22.70
2018-07-17T06:25:01.823Z,22.70
2018-07-17T06:27:29.052Z,22.70
2018-07-17T06:29:56.445Z,22.70
2018-07-17T06:32:23.817Z,22.80
2018-07-17T06:34:51.211Z,22.80
2018-07-17T06:37:18.551Z,22.80
2018-07-17T06:39:45.948Z,22.70
2018-07-17T06:42:13.327Z,22.70
2018-07-17T06:47:08.052Z,22.70
2018-07-17T06:49:35.444Z,22.80
2018-07-17T06:52:02.777Z,22.70
2018-07-17T06:54:30.134Z,22.80
2018-07-17T06:56:57.475Z,22.80
2018-07-17T06:59:24.871Z,22.80
2018-07-17T07:01:52.227Z,22.70
2018-07-17T07:04:19.547Z,22.70
2018-07-17T07:06:46.906Z,22.70
2018-07-17T07:09:14.240Z,22.70
2018-07-17T07:11:41.589Z,22.70
2018-07-17T07:14:08.948Z,22.70
2018-07-17T07:16:36.321Z,22.70
2018-07-17T07:19:03.677Z,22.70
2018-07-17T07:21:31.060Z,22.70
2018-07-17T07:23:58.427Z,22.60
2018-07-17T07:26:25.788Z,22.60
2018-07-17T07:28:53.145Z,22.60
2018-07-17T07:31:20.511Z,22.60
2018-07-17T07:33:47.863Z,22.60
2018-07-17T07:36:15.254Z,22.60
2018-07-17T07:38:42.603Z,22.70
2018-07-17T07:41:09.982Z,22.70
2018-07-17T07:43:37.358Z,22.70
2018-07-17T07:46:05.111Z,22.80
2018-07-17T07:48:32.494Z,22.70
2018-07-17T07:50:59.836Z,22.70
2018-07-17T07:53:27.190Z,22.60
2018-07-17T07:55:54.518Z,22.70
2018-07-17T07:58:21.875Z,22.70
2018-07-17T08:00:49.228Z,22.70
2018-07-17T08:03:16.584Z,22.70
2018-07-17T08:05:43.973Z,22.70
2018-07-17T08:08:11.318Z,22.80
2018-07-17T08:10:38.735Z,22.70
2018-07-17T08:13:06.061Z,22.70
2018-07-17T08:15:33.412Z,22.80
2018-07-17T08:18:00.759Z,22.80
2018-07-17T08:20:28.153Z,22.90
2018-07-17T08:22:55.526Z,22.90
2018-07-17T08:25:22.880Z,23.00
2018-07-17T08:27:50.235Z,23.10
2018-07-17T08:30:17.625Z,23.10
2018-07-17T08:32:44.992Z,23.20
2018-07-17T08:35:12.354Z,23.30
2018-07-17T08:37:39.759Z,23.30
2018-07-17T08:40:07.189Z,23.40
2018-07-17T08:42:34.579Z,23.30
2018-07-17T08:45:01.982Z,23.30
2018-07-17T08:47:29.352Z,23.30
2018-07-17T08:49:56.694Z,23.30
2018-07-17T08:52:24.052Z,23.20
2018-07-17T08:54:51.412Z,23.20
2018-07-17T08:57:18.755Z,23.10
2018-07-17T08:59:46.120Z,23.20
2018-07-17T09:02:13.498Z,23.30
2018-07-17T09:04:40.883Z,23.30
2018-07-17T09:07:08.241Z,23.40
2018-07-17T09:09:35.618Z,23.50
2018-07-17T09:12:02.990Z,23.40
2018-07-17T09:14:30.344Z,23.40
2018-07-17T09:16:57.727Z,23.40
2018-07-17T09:19:25.091Z,23.40
2018-07-17T09:21:52.484Z,23.30
2018-07-17T09:24:19.847Z,23.20
2018-07-17T09:26:47.231Z,23.40
2018-07-17T09:29:14.579Z,23.40
2018-07-17T09:31:41.952Z,23.40
2018-07-17T09:34:09.339Z,23.50
2018-07-17T09:36:36.690Z,23.50
2018-07-17T09:39:06.080Z,23.40
2018-07-17T09:41:33.657Z,23.50
2018-07-17T09:44:01.020Z,23.50
2018-07-17T09:46:28.394Z,23.50
2018-07-17T09:48:55.723Z,23.40
2018-07-17T09:51:23.084Z,23.50
2018-07-17T09:53:50.455Z,23.40
2018-07-17T09:56:17.881Z,23.40
2018-07-17T09:58:45.216Z,23.40
2018-07-17T10:01:18.352Z,23.40
2018-07-17T10:03:45.720Z,23.50
2018-07-17T10:06:13.078Z,23.50
2018-07-17T10:08:40.452Z,23.60
2018-07-17T10:11:07.824Z,23.60
2018-07-17T10:13:35.219Z,23.60
2018-07-17T10:16:02.575Z,23.60
2018-07-17T10:18:29.913Z,23.80
2018-07-17T10:20:57.290Z,23.60
2018-07-17T10:23:24.667Z,23.60
2018-07-17T10:25:52.032Z,23.70
2018-07-17T10:28:19.410Z,23.70
2018-07-17T10:30:46.792Z,23.70
2018-07-17T10:33:14.150Z,23.70
2018-07-17T10:35:41.581Z,23.60
2018-07-17T10:38:08.960Z,23.60
2018-07-17T10:40:36.355Z,23.50
2018-07-17T10:43:03.746Z,23.50
2018-07-17T10:45:31.104Z,23.70
2018-07-17T10:47:58.480Z,23.80
2018-07-17T10:50:25.831Z,24.00
2018-07-17T10:52:53.219Z,24.10
2018-07-17T10:55:20.575Z,24.10
2018-07-17T10:57:47.935Z,24.20
2018-07-17T11:00:15.297Z,24.30
2018-07-17T11:02:42.664Z,24.40
2018-07-17T11:05:10.010Z,24.20
2018-07-17T11:07:37.399Z,24.20
2018-07-17T11:10:04.783Z,24.10
2018-07-17T11:12:32.138Z,24.10
2018-07-17T11:14:59.535Z,24.00
2018-07-17T11:17:26.888Z,24.10
2018-07-17T11:19:54.363Z,24.10
2018-07-17T11:22:21.747Z,24.30
2018-07-17T11:24:49.140Z,24.30
2018-07-17T11:27:16.491Z,24.50
2018-07-17T11:29:44.024Z,24.60
2018-07-17T11:32:11.564Z,24.50
2018-07-17T11:34:38.918Z,24.20
2018-07-17T11:37:06.331Z,24.90
2018-07-17T11:39:33.643Z,25.00
2018-07-17T11:42:01.010Z,25.00
2018-07-17T11:44:28.423Z,25.10
2018-07-17T11:46:55.776Z,25.30
2018-07-17T11:49:23.131Z,25.00
2018-07-17T11:51:50.507Z,25.00
2018-07-17T11:54:17.892Z,25.10
2018-07-17T11:56:45.250Z,25.30
2018-07-17T11:59:12.648Z,25.40
2018-07-17T12:01:40.099Z,25.30
2018-07-17T12:04:07.464Z,25.30
2018-07-17T12:06:34.820Z,25.30
2018-07-17T12:09:02.447Z,25.50
2018-07-17T12:11:29.791Z,25.40
2018-07-17T12:13:57.178Z,25.40
2018-07-17T12:16:24.516Z,25.50
2018-07-17T12:18:51.873Z,25.50
2018-07-17T12:21:19.293Z,25.40
2018-07-17T12:23:46.652Z,25.30
2018-07-17T12:26:14.004Z,25.30
2018-07-17T12:28:41.360Z,25.20
2018-07-17T12:31:08.695Z,25.20
2018-07-17T12:36:03.423Z,25.00
2018-07-17T12:38:30.804Z,25.10
2018-07-17T12:40:58.176Z,25.00
2018-07-17T12:43:25.560Z,25.10
2018-07-17T12:45:52.923Z,25.10
2018-07-17T12:48:20.290Z,25.30
2018-07-17T12:50:47.650Z,25.40
2018-07-17T12:53:15.040Z,25.30
2018-07-17T12:55:42.529Z,25.40
2018-07-17T12:58:09.867Z,25.50
2018-07-17T13:00:37.452Z,25.70
2018-07-17T13:03:05.123Z,25.90
2018-07-17T13:05:32.564Z,26.10
2018-07-17T13:07:59.979Z,26.30
2018-07-17T13:10:27.401Z,26.40
2018-07-17T13:12:54.751Z,26.20
2018-07-17T13:15:22.110Z,26.10
2018-07-17T13:20:20.459Z,26.00
2018-07-17T13:22:47.842Z,25.90
2018-07-17T13:25:15.203Z,25.70
2018-07-17T13:27:42.650Z,25.70
2018-07-17T13:30:10.015Z,25.80
2018-07-17T13:32:37.390Z,25.90
2018-07-17T13:35:04.734Z,25.80
2018-07-17T13:37:32.148Z,25.80
2018-07-17T13:39:59.519Z,25.80
2018-07-17T13:42:26.944Z,25.70
2018-07-17T13:44:54.426Z,25.60
2018-07-17T13:47:21.702Z,25.40
2018-07-17T13:49:49.057Z,25.40
2018-07-17T13:52:16.413Z,25.20
2018-07-17T13:54:43.799Z,25.00
2018-07-17T13:57:11.217Z,25.00
2018-07-17T13:59:38.608Z,24.80
2018-07-17T14:02:06.103Z,24.80
2018-07-17T14:04:33.453Z,25.00
2018-07-17T14:07:00.951Z,24.90
2018-07-17T14:09:28.237Z,24.90
2018-07-17T14:11:55.579Z,24.90
2018-07-17T14:14:22.984Z,24.80
2018-07-17T14:16:50.560Z,24.70
2018-07-17T14:19:17.964Z,24.70
2018-07-17T14:21:45.327Z,25.00
2018-07-17T14:24:12.713Z,24.90
2018-07-17T14:26:40.076Z,24.80
2018-07-17T14:29:07.431Z,24.80
2018-07-17T14:31:34.806Z,24.80
2018-07-17T14:34:02.203Z,24.70
2018-07-17T14:36:29.575Z,24.90
2018-07-17T14:38:57.023Z,25.00
2018-07-17T14:41:24.422Z,24.90
2018-07-17T14:43:51.798Z,24.70
2018-07-17T14:46:20.072Z,24.70
2018-07-17T14:48:47.431Z,24.80
2018-07-17T14:51:14.792Z,24.80
2018-07-17T14:53:42.150Z,24.80
2018-07-17T14:56:09.539Z,24.40
2018-07-17T14:58:36.892Z,24.30
2018-07-17T15:01:04.883Z,24.10
2018-07-17T15:03:32.552Z,24.10
2018-07-17T15:05:59.911Z,24.00
2018-07-17T15:08:27.272Z,24.10
2018-07-17T15:10:54.647Z,24.10
2018-07-17T15:13:22.013Z,24.10
2018-07-17T15:15:49.464Z,24.10
2018-07-17T15:18:16.784Z,24.10
2018-07-17T15:20:44.140Z,24.10
2018-07-17T15:23:11.524Z,24.10
2018-07-17T15:25:38.907Z,24.00
2018-07-17T15:28:06.418Z,23.90
2018-07-17T15:30:33.792Z,23.90
2018-07-17T15:33:01.171Z,23.80
2018-07-17T15:35:28.528Z,23.90
2018-07-17T15:37:55.902Z,24.10
2018-07-17T15:40:23.525Z,24.20
2018-07-17T15:42:50.926Z,24.00
2018-07-17T15:45:18.709Z,23.90
2018-07-17T15:47:46.023Z,23.90
2018-07-17T15:50:14.636Z,23.90
2018-07-17T15:52:42.020Z,23.90
2018-07-17T15:55:09.449Z,23.80
2018-07-17T15:57:36.851Z,23.90
2018-07-17T16:00:04.533Z,23.90
2018-07-17T16:02:31.887Z,23.90
2018-07-17T16:04:59.260Z,23.80
2018-07-17T16:07:26.616Z,23.60
2018-07-17T16:09:54.182Z,23.50
2018-07-17T16:12:21.524Z,23.50
2018-07-17T16:14:49.757Z,23.60
2018-07-17T16:17:17.200Z,23.60
2018-07-17T16:19:44.558Z,23.40
2018-07-17T16:22:11.936Z,23.40
2018-07-17T16:24:39.331Z,23.40
2018-07-17T16:27:07.451Z,23.50
2018-07-17T16:29:34.900Z,23.40
2018-07-17T16:34:29.868Z,23.40
2018-07-17T16:36:57.283Z,23.30
2018-07-17T16:39:24.655Z,23.30
2018-07-17T16:41:52.228Z,23.20
2018-07-17T16:44:19.766Z,23.30
2018-07-17T16:46:47.164Z,23.30
2018-07-17T16:49:14.649Z,23.30
2018-07-17T16:51:42.493Z,23.30
2018-07-17T16:54:09.871Z,23.30
2018-07-17T16:56:37.225Z,23.30
2018-07-17T16:59:04.588Z,23.20
2018-07-17T17:01:31.970Z,23.20
2018-07-17T17:03:59.352Z,23.30
2018-07-17T17:06:26.694Z,23.30
2018-07-17T17:08:54.068Z,23.20
2018-07-17T17:11:21.426Z,23.30
2018-07-17T17:13:48.798Z,23.20
2018-07-17T17:16:16.231Z,23.30
2018-07-17T17:18:43.575Z,23.20
2018-07-17T17:21:10.938Z,23.10
2018-07-17T17:23:38.279Z,23.10
2018-07-17T17:26:06.304Z,23.30
2018-07-17T17:28:33.675Z,23.20
2018-07-17T17:31:01.047Z,23.10
2018-07-17T17:33:28.415Z,23.10
2018-07-17T17:35:55.788Z,23.10
2018-07-17T17:38:23.179Z,23.00
2018-07-17T17:40:50.583Z,23.00
2018-07-17T17:43:17.950Z,23.00
2018-07-17T17:45:45.288Z,23.10
2018-07-17T17:48:12.666Z,23.10
2018-07-17T17:50:40.076Z,23.10
2018-07-17T17:53:07.427Z,23.00
2018-07-17T17:55:34.820Z,23.00
2018-07-17T17:58:02.168Z,23.00
2018-07-17T18:00:29.538Z,23.00
2018-07-17T18:02:56.882Z,22.80
2018-07-17T18:05:24.252Z,22.80
2018-07-17T18:07:51.731Z,22.80
2018-07-17T18:10:19.105Z,22.90
2018-07-17T18:12:46.494Z,23.00
2018-07-17T18:15:13.884Z,23.00
2018-07-17T18:17:41.316Z,23.00
2018-07-17T18:20:08.656Z,22.80
2018-07-17T18:22:36.027Z,22.90
2018-07-17T18:25:03.507Z,22.90
2018-07-17T18:27:30.871Z,22.90
2018-07-17T18:29:58.227Z,22.90
2018-07-17T18:32:25.588Z,22.90
2018-07-17T18:34:53.208Z,22.90
2018-07-17T18:37:20.561Z,23.00
2018-07-17T18:39:47.911Z,22.90
2018-07-17T18:42:15.402Z,22.90
2018-07-17T18:44:42.686Z,22.90
2018-07-17T18:47:10.147Z,22.80
2018-07-17T18:49:37.547Z,22.80
2018-07-17T18:52:04.993Z,22.80
2018-07-17T18:54:32.343Z,22.90
2018-07-17T18:56:59.679Z,22.90
2018-07-17T18:59:27.029Z,22.80
2018-07-17T19:01:54.403Z,22.80
2018-07-17T19:04:21.765Z,22.80
2018-07-17T19:06:49.102Z,22.80
2018-07-17T19:09:16.489Z,22.80
2018-07-17T19:11:43.848Z,22.90
2018-07-17T19:14:11.266Z,22.80
2018-07-17T19:16:38.624Z,22.70
2018-07-17T19:19:06.256Z,22.70
2018-07-17T19:21:33.675Z,22.80
2018-07-17T19:24:01.072Z,22.70
2018-07-17T19:26:28.439Z,22.60
2018-07-17T19:28:55.854Z,22.70
2018-07-17T19:31:23.195Z,22.70
2018-07-17T19:33:50.563Z,22.70
2018-07-17T19:36:18.026Z,22.70
2018-07-17T19:38:45.403Z,22.70
2018-07-17T19:41:12.771Z,22.70
2018-07-17T19:43:40.128Z,22.70
2018-07-17T19:46:07.485Z,22.70
2018-07-17T19:48:34.862Z,22.60
2018-07-17T19:51:02.207Z,22.60
2018-07-17T19:53:29.580Z,22.60
2018-07-17T19:55:56.970Z,22.60
2018-07-17T19:58:24.291Z,22.60
2018-07-17T20:00:51.661Z,22.50
2018-07-17T20:03:19.015Z,22.60
2018-07-17T20:05:46.383Z,22.50
2018-07-17T20:08:13.825Z,22.50
2018-07-17T20:10:41.209Z,22.50
2018-07-17T20:13:08.557Z,22.50
2018-07-17T20:15:35.980Z,22.50
2018-07-17T20:18:03.388Z,22.50
2018-07-17T20:20:30.963Z,22.50
2018-07-17T20:22:58.382Z,22.30
2018-07-17T20:25:25.744Z,22.50
2018-07-17T20:27:53.098Z,22.40
2018-07-17T20:30:20.470Z,22.40
2018-07-17T20:32:47.827Z,22.40
2018-07-17T20:35:15.199Z,22.40
2018-07-17T20:37:42.579Z,22.40
2018-07-17T20:40:09.927Z,22.40
2018-07-17T20:42:37.349Z,22.40
2018-07-17T20:45:04.742Z,22.30
2018-07-17T20:49:59.890Z,22.30
2018-07-17T20:52:27.324Z,22.30
2018-07-17T20:54:54.876Z,22.30
2018-07-17T20:57:22.236Z,22.20
2018-07-17T20:59:49.783Z,22.20
2018-07-17T21:02:17.164Z,22.10
2018-07-17T21:04:44.504Z,22.20
2018-07-17T21:07:11.865Z,22.20
2018-07-17T21:09:39.232Z,22.10
2018-07-17T21:12:06.592Z,22.00
2018-07-17T21:14:33.951Z,22.00
2018-07-17T21:17:01.315Z,21.90
2018-07-17T21:19:28.659Z,21.90
2018-07-17T21:21:56.001Z,21.90
2018-07-17T21:24:23.354Z,21.80
2018-07-17T21:26:50.806Z,21.80
2018-07-17T21:29:18.196Z,21.70
2018-07-17T21:31:45.594Z,21.60
2018-07-17T21:34:12.962Z,21.70
2018-07-17T21:36:40.375Z,21.60
2018-07-17T21:39:08.466Z,21.60
2018-07-17T21:41:35.864Z,21.50
2018-07-17T21:44:03.207Z,21.50
2018-07-17T21:46:30.666Z,21.50
2018-07-17T21:48:58.036Z,21.50
2018-07-17T21:51:25.405Z,21.40
2018-07-17T21:53:52.762Z,21.40
2018-07-17T21:56:20.191Z,21.40
2018-07-17T21:58:47.824Z,21.40
2018-07-17T22:01:15.576Z,21.30
2018-07-17T22:03:42.947Z,21.30
2018-07-17T22:06:10.424Z,21.30
2018-07-17T22:08:37.810Z,21.30
2018-07-17T22:11:05.196Z,21.20
2018-07-17T22:13:32.532Z,21.20
2018-07-17T22:15:59.880Z,21.20
2018-07-17T22:18:27.267Z,21.20
2018-07-17T22:20:54.615Z,21.20
2018-07-17T22:23:21.972Z,21.20
2018-07-17T22:25:49.320Z,21.10
2018-07-17T22:28:16.679Z,21.10
2018-07-17T22:30:44.032Z,21.00
2018-07-17T22:33:11.406Z,21.00
2018-07-17T22:35:38.847Z,21.10
2018-07-17T22:38:06.202Z,21.00
2018-07-17T22:40:33.565Z,21.00
2018-07-17T22:43:00.920Z,21.00
2018-07-17T22:45:28.255Z,21.00
2018-07-17T22:47:55.623Z,20.90
2018-07-17T22:50:23.097Z,20.90
2018-07-17T22:52:50.448Z,20.90
2018-07-17T22:55:17.804Z,20.90
2018-07-17T22:57:45.170Z,20.80
2018-07-17T23:00:12.539Z,20.80
2018-07-17T23:02:39.892Z,20.80
2018-07-17T23:05:07.256Z,20.70
2018-07-17T23:07:34.629Z,20.70
2018-07-17T23:10:01.991Z,20.70
2018-07-17T23:12:29.332Z,20.70
2018-07-17T23:14:56.689Z,20.70
2018-07-17T23:17:24.056Z,20.70
2018-07-17T23:19:51.416Z,20.70
2018-07-17T23:22:26.717Z,20.70
2018-07-17T23:24:54.076Z,20.60
2018-07-17T23:27:21.411Z,20.60
2018-07-17T23:29:48.771Z,20.60
2018-07-17T23:34:43.443Z,20.60
2018-07-17T23:37:10.796Z,20.60
2018-07-17T23:39:38.144Z,20.60
2018-07-17T23:42:05.503Z,20.60
2018-07-17T23:44:32.887Z,20.60
2018-07-17T23:47:00.244Z,20.60
2018-07-17T23:49:33.232Z,20.60
2018-07-17T23:52:00.587Z,20.60
2018-07-17T23:54:27.973Z,20.60
2018-07-17T23:56:55.332Z,20.60
2018-07-17T23:59:22.681Z,20.50
